Alta Vista, KS

8:34 PM CDT on April 24, 2015 (GMT -0500)
deepcreek | | Change Station
CLOSE
Current Station
Personal Weather Station
Location: Manhattan, KS
Elevation: 1263 ft
Nearby Weather Stations

Elev 1263 ft 39.12 °N, 96.50 °W | Updated 53 seconds ago

Overcast
Overcast
61.9 °F
Feels Like 61.9 °F
N
13.6
Wind Variable Wind from ESE
Gusts 13.6 mph

Today
High -- | Low -- °F
--% Chance of Precip.
Yesterday
High -- | Low -- °F
Precip. -- in
6:37 AM 8:11 PM
Waxing Crescent, 41% visible
Pressure 29.44 in
Visibility 10.0 miles
Clouds Mostly Cloudy 3200 ft
Overcast 4600 ft
Dew Point 42 °F
Humidity 47%
Rainfall 0.00 in
Snow Depth Not available.
UV 0 out of 12
Pollen 10.30 out of 12
Air Quality Not available.
Flu Activity Sporadic
METAR KFRI 250058Z AUTO 05011KT 10SM BKN032 OVC046 18/15 A2946 RMK AO2 SLP970 T01800151

More Conditions Fewer Conditions

Pressure 29.44 in
Visibility 10.0 miles
Clouds Mostly Cloudy 3200 ft
Overcast 4600 ft
Dew Point 42 °F
Humidity 47%
Rainfall 0.00 in
Snow Depth Not available.
UV 0 out of 12
Pollen 10.30 out of 12
Air Quality Not available.
Flu Activity Sporadic
METAR KFRI 250058Z AUTO 05011KT 10SM BKN032 OVC046 18/15 A2946 RMK AO2 SLP970 T01800151

More Conditions Fewer Conditions

There is an enhanced risk of severe weather for parts of Texas, Louisiana, southern Arkansas, and Kansas. A slight risk of severe weather encompasses a wide area of the Plains and Lower Mississippi Valley as well. This means severe thunderstorms will be capable of producing strong wind, large hail, heavy rain, and the possibility of tornadoes into the evening.

10-Day Weather Forecast

Almanac

Astronomy

Apr. 24, 2015 Rise Set
Actual Time
Civil Twilight
Nautical Twilight
Astronomical Twilight
Moon
Length of Visible Light
Length of Day
Tomorrow will be .
, % of the Moon is Illuminated

Today's Extremes

State Highs State Lows

Community

WunderPhotos

Upload Photos

1,816,551 photos uploaded!

WunderBlogs® & News

Nearby

Air Quality

  Air Quality AQ Index Pollutant
Not available.

Snow Depth

Station Depth Elevation

Earthquake Activity

City Distance Mag. Time & Date
Minimum magnitude displayed is 2.5.

Coastal Water Temperatures

Place Temperature

Stations

Nearby Weather Stations

Station Location Temp. Windchill Dew Point Humidity Wind Precip. Elev Updated Type